Time;durP1;ratioP1;P1;durP2;ratioP2;P2;SDS_P1;SDS_P2;PMS_P1;PMS_P2;Temp;Humidity;BMP_temperature;BMP_pressure;BME280_temperature;BME280_humidity;BME280_pressure;Samples;Min_cycle;Max_cycle;Signal;HPM_P1;HPM_P2
2023/08/12 00:01:41;;;;;;;5.57;3.47;;;18.40;97.50;;;;;;5011271;28;20083;-70
2023/08/12 00:04:06;;;;;;;7.93;3.40;;;18.30;97.70;;;;;;4992797;28;20422;-70
2023/08/12 00:06:32;;;;;;;6.20;3.73;;;18.30;97.70;;;;;;5009751;28;20303;-70
2023/08/12 00:08:58;;;;;;;6.80;3.53;;;18.30;97.60;;;;;;4990925;28;20069;-70
2023/08/12 00:11:24;;;;;;;8.13;4.10;;;18.30;97.80;;;;;;5027908;28;20057;-70
2023/08/12 00:13:49;;;;;;;7.30;3.93;;;18.30;98.00;;;;;;5019564;28;20041;-70
2023/08/12 00:16:15;;;;;;;9.33;4.00;;;18.20;98.00;;;;;;5029816;28;20036;-70
2023/08/12 00:18:42;;;;;;;9.07;3.90;;;18.20;97.80;;;;;;5023968;28;20194;-70
2023/08/12 00:21:09;;;;;;;7.67;4.37;;;18.20;98.00;;;;;;5027449;28;20123;-70
2023/08/12 00:23:42;;;;;;;8.87;4.37;;;18.20;98.10;;;;;;5024243;28;20367;-70
2023/08/12 00:26:08;;;;;;;6.47;4.20;;;18.20;98.10;;;;;;5026553;28;20194;-70
2023/08/12 00:28:34;;;;;;;8.37;4.10;;;18.20;98.10;;;;;;5011874;28;20106;-70
2023/08/12 00:31:00;;;;;;;6.87;4.17;;;18.20;98.30;;;;;;5012034;28;20064;-70
2023/08/12 00:33:26;;;;;;;6.73;4.13;;;18.10;98.30;;;;;;5004427;28;20045;-70
2023/08/12 00:35:51;;;;;;;9.23;4.70;;;18.10;98.50;;;;;;5029346;28;20114;-70
2023/08/12 00:38:17;;;;;;;9.27;5.07;;;18.10;98.50;;;;;;5026798;28;20041;-70
2023/08/12 00:40:43;;;;;;;9.97;4.73;;;18.10;98.50;;;;;;5024673;28;20116;-70
2023/08/12 00:43:09;;;;;;;11.30;5.27;;;18.10;98.50;;;;;;5010973;28;20170;-70
2023/08/12 00:45:35;;;;;;;10.43;5.17;;;18.00;98.70;;;;;;5020644;28;20084;-70
2023/08/12 00:48:02;;;;;;;9.13;5.00;;;18.00;98.80;;;;;;5004721;28;20276;-70
2023/08/12 00:50:29;;;;;;;9.07;5.30;;;18.00;98.80;;;;;;5018574;28;20041;-70
2023/08/12 00:52:54;;;;;;;7.77;5.33;;;18.00;98.90;;;;;;5024821;28;20301;-70
2023/08/12 00:55:21;;;;;;;9.87;5.97;;;17.90;98.90;;;;;;5020822;28;20482;-70
2023/08/12 00:57:46;;;;;;;9.37;5.47;;;17.90;99.00;;;;;;5025564;28;20132;-70
2023/08/12 01:00:13;;;;;;;6.97;4.90;;;17.90;99.10;;;;;;5029848;28;20330;-70
2023/08/12 01:02:39;;;;;;;9.33;5.40;;;17.90;99.30;;;;;;5006170;28;20064;-70
2023/08/12 01:05:05;;;;;;;10.77;5.67;;;17.90;99.30;;;;;;5028358;28;20370;-70
2023/08/12 01:07:31;;;;;;;7.70;5.20;;;17.80;99.50;;;;;;5028523;28;20052;-70
2023/08/12 01:09:57;;;;;;;8.37;5.30;;;17.80;99.30;;;;;;5000695;28;20292;-70
2023/08/12 01:12:35;;;;;;;9.53;5.67;;;17.80;99.40;;;;;;5010406;28;20731;-70
2023/08/12 01:15:17;;;;;;;11.43;6.20;;;17.80;99.60;;;;;;4994909;28;20079;-70
2023/08/12 01:17:44;;;;;;;10.63;5.83;;;17.70;99.50;;;;;;5003132;28;20312;-70
2023/08/12 01:20:14;;;;;;;8.33;5.00;;;17.70;99.80;;;;;;4993061;28;20790;-70
2023/08/12 01:22:44;;;;;;;9.83;5.60;;;17.70;99.70;;;;;;4992338;28;20292;-70
2023/08/12 01:25:10;;;;;;;8.67;5.73;;;17.70;99.80;;;;;;4992736;28;20288;-70
2023/08/12 01:27:38;;;;;;;10.27;4.97;;;17.70;99.90;;;;;;5008488;28;20048;-70
2023/08/12 01:30:06;;;;;;;10.37;6.13;;;17.60;99.90;;;;;;5009245;28;20068;-70
2023/08/12 01:32:48;;;;;;;10.13;6.40;;;17.60;99.90;;;;;;5011075;28;20053;-70
2023/08/12 01:35:35;;;;;;;9.70;5.50;;;17.60;99.90;;;;;;5022712;28;20699;-70
2023/08/12 01:38:04;;;;;;;9.83;6.87;;;17.60;99.90;;;;;;5014064;28;20299;-70
2023/08/12 01:40:32;;;;;;;10.30;6.00;;;17.60;99.90;;;;;;5009194;28;20311;-70
2023/08/12 01:42:59;;;;;;;10.93;6.50;;;17.60;99.90;;;;;;5013195;28;20667;-70
2023/08/12 01:45:25;;;;;;;9.70;6.23;;;17.60;99.90;;;;;;5006368;28;20825;-70
2023/08/12 01:47:51;;;;;;;10.73;6.10;;;17.60;99.90;;;;;;4992899;28;20370;-70
2023/08/12 01:50:18;;;;;;;11.07;6.80;;;17.60;99.90;;;;;;5009215;28;20049;-70
2023/08/12 01:52:44;;;;;;;8.97;6.27;;;17.70;99.90;;;;;;5008697;28;20042;-70
2023/08/12 01:55:10;;;;;;;10.23;6.90;;;17.70;99.90;;;;;;5008797;28;20295;-70
2023/08/12 01:57:36;;;;;;;9.90;6.57;;;17.80;99.90;;;;;;5008066;28;20076;-70
2023/08/12 02:00:02;;;;;;;10.63;7.23;;;17.80;99.90;;;;;;5005285;28;20042;-70
2023/08/12 02:02:28;;;;;;;14.77;7.13;;;17.80;99.90;;;;;;5008995;28;20493;-70
2023/08/12 02:04:53;;;;;;;11.60;6.23;;;17.90;99.90;;;;;;5023738;28;20302;-70
2023/08/12 02:07:19;;;;;;;11.27;6.70;;;17.90;99.90;;;;;;5008823;28;20069;-70
2023/08/12 02:09:45;;;;;;;9.77;5.90;;;17.90;99.90;;;;;;4994149;28;20119;-70
2023/08/12 02:12:11;;;;;;;14.30;6.93;;;17.90;99.90;;;;;;4991694;28;20485;-70
2023/08/12 02:14:36;;;;;;;12.83;6.67;;;18.00;99.90;;;;;;4989099;28;20077;-70
2023/08/12 02:17:05;;;;;;;11.23;6.90;;;18.00;99.90;;;;;;5003085;28;20045;-70
2023/08/12 02:19:32;;;;;;;12.67;6.63;;;18.00;99.90;;;;;;5005445;28;20100;-70
2023/08/12 02:21:59;;;;;;;12.23;6.20;;;18.10;99.90;;;;;;4992172;28;20033;-70
2023/08/12 02:24:24;;;;;;;14.63;6.57;;;18.10;99.90;;;;;;4984219;28;20133;-70
2023/08/12 02:26:50;;;;;;;12.23;6.43;;;18.10;99.90;;;;;;5003678;28;20147;-70
2023/08/12 02:29:16;;;;;;;11.17;5.70;;;18.20;99.90;;;;;;5003667;28;20053;-70
2023/08/12 02:31:41;;;;;;;9.37;5.60;;;18.20;99.90;;;;;;4995901;28;20033;-70
2023/08/12 02:34:07;;;;;;;10.90;5.93;;;18.20;99.90;;;;;;4989328;28;20045;-70
2023/08/12 02:36:33;;;;;;;13.17;6.10;;;18.30;99.90;;;;;;5004846;28;20049;-70
2023/08/12 02:38:59;;;;;;;11.47;6.07;;;18.30;99.90;;;;;;5012067;28;20562;-70
2023/08/12 02:41:24;;;;;;;11.93;6.03;;;18.30;99.90;;;;;;5012787;28;20099;-70
2023/08/12 02:43:50;;;;;;;8.97;5.80;;;18.30;99.90;;;;;;5010580;28;20038;-70
2023/08/12 02:46:17;;;;;;;10.23;5.93;;;18.30;99.90;;;;;;5011878;28;20042;-70
2023/08/12 02:48:43;;;;;;;10.53;5.80;;;18.40;99.90;;;;;;5004002;28;20406;-70
2023/08/12 02:51:09;;;;;;;11.57;6.20;;;18.40;99.90;;;;;;5008200;28;20034;-70
2023/08/12 02:53:35;;;;;;;10.57;6.50;;;18.40;99.90;;;;;;5004347;28;20451;-70
2023/08/12 02:56:01;;;;;;;13.07;6.83;;;18.40;99.90;;;;;;5012293;28;20038;-70
2023/08/12 02:58:27;;;;;;;12.40;6.63;;;18.40;99.90;;;;;;5006019;28;20041;-70
2023/08/12 03:00:55;;;;;;;12.60;7.10;;;18.40;99.90;;;;;;5011994;28;20487;-70
2023/08/12 03:03:21;;;;;;;8.87;6.03;;;18.40;99.90;;;;;;5005401;28;20490;-70
2023/08/12 03:05:50;;;;;;;11.80;6.80;;;18.40;99.90;;;;;;4986715;28;20356;-70
2023/08/12 03:08:16;;;;;;;11.33;6.77;;;18.40;99.90;;;;;;4998319;28;20393;-70
2023/08/12 03:10:42;;;;;;;10.87;6.50;;;18.40;99.90;;;;;;5023374;28;20119;-70
2023/08/12 03:13:08;;;;;;;11.97;6.93;;;18.40;99.90;;;;;;5025081;28;20124;-70
2023/08/12 03:15:33;;;;;;;9.03;6.03;;;18.40;99.90;;;;;;5030969;28;20392;-70
2023/08/12 03:17:59;;;;;;;13.03;7.37;;;18.40;99.90;;;;;;5009984;28;20183;-70
2023/08/12 03:20:25;;;;;;;14.00;7.43;;;18.40;99.90;;;;;;5027846;28;20533;-70
2023/08/12 03:22:51;;;;;;;13.87;7.73;;;18.40;99.90;;;;;;5010310;28;20135;-70
2023/08/12 03:25:16;;;;;;;13.30;7.13;;;18.40;99.90;;;;;;5014277;28;20128;-70
2023/08/12 03:27:42;;;;;;;11.93;7.33;;;18.40;99.90;;;;;;5029171;28;20052;-70
2023/08/12 03:30:09;;;;;;;10.27;7.07;;;18.40;99.90;;;;;;5029771;28;20496;-70
2023/08/12 03:32:35;;;;;;;15.30;7.60;;;18.40;99.90;;;;;;5029922;28;20109;-70
2023/08/12 03:35:01;;;;;;;12.27;7.80;;;18.40;99.90;;;;;;5014833;28;20451;-70
2023/08/12 03:37:27;;;;;;;13.57;7.93;;;18.40;99.90;;;;;;5030505;28;20041;-70
2023/08/12 03:39:53;;;;;;;14.47;7.63;;;18.40;99.90;;;;;;5024436;28;20044;-70
2023/08/12 03:42:19;;;;;;;12.37;7.20;;;18.40;99.90;;;;;;5014302;28;20769;-70
2023/08/12 03:44:45;;;;;;;12.50;7.17;;;18.40;99.90;;;;;;5028370;28;20033;-70
2023/08/12 03:47:10;;;;;;;11.00;7.80;;;18.40;99.90;;;;;;5030438;28;20552;-70
2023/08/12 03:49:37;;;;;;;14.27;7.67;;;18.40;99.90;;;;;;5011018;28;20106;-70
2023/08/12 03:52:03;;;;;;;14.23;8.00;;;18.40;99.90;;;;;;5026547;28;20186;-70
2023/08/12 03:54:29;;;;;;;15.20;7.67;;;18.40;99.90;;;;;;5028226;28;20697;-70
2023/08/12 03:56:55;;;;;;;14.40;7.40;;;18.40;99.90;;;;;;5030477;28;20516;-70
2023/08/12 03:59:20;;;;;;;14.17;7.17;;;18.50;99.90;;;;;;5030209;28;20041;-70
2023/08/12 04:01:46;;;;;;;12.90;6.60;;;18.50;99.90;;;;;;5009084;28;20151;-70
2023/08/12 04:04:12;;;;;;;14.43;7.40;;;18.50;99.90;;;;;;5014046;28;20037;-70
2023/08/12 04:06:37;;;;;;;11.33;7.10;;;18.50;99.90;;;;;;5027963;28;20400;-70
2023/08/12 04:09:04;;;;;;;10.13;6.87;;;18.50;99.90;;;;;;5030970;28;20122;-70
2023/08/12 04:11:31;;;;;;;11.63;6.40;;;18.50;99.90;;;;;;5009841;28;20048;-70
2023/08/12 04:13:56;;;;;;;11.23;6.83;;;18.50;99.90;;;;;;5028895;28;20048;-70
2023/08/12 04:16:23;;;;;;;11.17;6.30;;;18.50;99.90;;;;;;5027598;28;20034;-70
2023/08/12 04:18:48;;;;;;;9.87;6.87;;;18.60;99.90;;;;;;5010601;28;20160;-70
2023/08/12 04:21:14;;;;;;;12.10;7.07;;;18.60;99.90;;;;;;5024338;28;20567;-70
2023/08/12 04:23:40;;;;;;;11.53;7.10;;;18.60;99.90;;;;;;5010988;28;20075;-70
2023/08/12 04:26:06;;;;;;;17.50;6.80;;;18.60;99.90;;;;;;5013763;28;20094;-70
2023/08/12 04:28:32;;;;;;;11.40;6.80;;;18.60;99.90;;;;;;5013647;28;20047;-70
2023/08/12 04:30:57;;;;;;;10.67;7.23;;;18.60;99.90;;;;;;5011942;28;20552;-70
2023/08/12 04:33:23;;;;;;;10.17;6.97;;;18.60;99.90;;;;;;5027835;28;20505;-70
2023/08/12 04:35:49;;;;;;;13.40;7.60;;;18.60;99.90;;;;;;5012416;28;20136;-70
2023/08/12 04:38:15;;;;;;;16.73;7.97;;;18.70;99.90;;;;;;5028737;28;20109;-70
2023/08/12 04:40:42;;;;;;;13.70;6.70;;;18.70;99.90;;;;;;5003742;28;20549;-70
2023/08/12 04:43:08;;;;;;;12.80;6.90;;;18.70;99.90;;;;;;5018717;28;20105;-70
2023/08/12 04:45:34;;;;;;;11.43;8.10;;;18.70;99.90;;;;;;5030316;28;20079;-70
2023/08/12 04:48:00;;;;;;;12.37;7.70;;;18.70;99.90;;;;;;5012819;28;20457;-70
2023/08/12 04:50:30;;;;;;;13.73;7.87;;;18.70;99.90;;;;;;5023208;28;20041;-70
2023/08/12 04:52:56;;;;;;;9.27;6.80;;;18.80;99.90;;;;;;5024344;28;20040;-70
2023/08/12 04:55:21;;;;;;;12.93;7.90;;;18.80;99.90;;;;;;5012230;28;20059;-70
2023/08/12 04:57:47;;;;;;;12.47;7.50;;;18.90;99.90;;;;;;5027776;28;20045;-70
2023/08/12 05:00:13;;;;;;;16.60;8.40;;;18.90;99.90;;;;;;5025394;28;20293;-70
2023/08/12 05:02:39;;;;;;;14.00;7.73;;;19.00;99.90;;;;;;5016887;28;20378;-70
2023/08/12 05:05:05;;;;;;;15.07;8.20;;;19.00;99.90;;;;;;5019014;28;20045;-71
2023/08/12 05:07:31;;;;;;;11.77;7.50;;;19.10;99.90;;;;;;5018547;28;20041;-71
2023/08/12 05:09:57;;;;;;;14.03;7.77;;;19.20;99.90;;;;;;5027155;28;20113;-71
2023/08/12 05:12:22;;;;;;;16.83;7.93;;;19.20;99.90;;;;;;5012135;28;20048;-71
2023/08/12 05:14:48;;;;;;;12.77;8.30;;;19.30;99.90;;;;;;5027952;28;20190;-71
2023/08/12 05:17:14;;;;;;;13.30;8.37;;;19.40;99.90;;;;;;5025464;28;20060;-71
2023/08/12 05:19:40;;;;;;;11.87;8.17;;;19.50;99.90;;;;;;5023428;28;20041;-71
2023/08/12 05:22:05;;;;;;;13.53;8.10;;;19.50;99.90;;;;;;5024209;28;20040;-71
2023/08/12 05:24:31;;;;;;;13.63;8.67;;;19.50;99.90;;;;;;5000770;28;20045;-71
2023/08/12 05:26:57;;;;;;;15.23;8.43;;;19.50;99.90;;;;;;5023725;28;20060;-71
2023/08/12 05:29:23;;;;;;;14.07;8.33;;;19.50;99.90;;;;;;5007056;28;20087;-71
2023/08/12 05:31:48;;;;;;;13.50;7.90;;;19.60;99.90;;;;;;5024213;28;20129;-71
2023/08/12 05:34:14;;;;;;;15.23;7.70;;;19.60;99.90;;;;;;5028282;28;20150;-70
2023/08/12 05:36:40;;;;;;;14.63;8.37;;;19.60;99.90;;;;;;5027935;28;20047;-70
2023/08/12 05:39:06;;;;;;;13.07;8.03;;;19.60;99.90;;;;;;5021612;28;20045;-70
2023/08/12 05:41:31;;;;;;;12.57;7.50;;;19.60;99.90;;;;;;5021652;28;20170;-70
2023/08/12 05:43:57;;;;;;;11.80;7.80;;;19.50;99.90;;;;;;5025212;28;20037;-70
2023/08/12 05:46:23;;;;;;;11.43;7.03;;;19.50;99.90;;;;;;5030000;28;20048;-70
2023/08/12 05:48:48;;;;;;;10.83;8.17;;;19.50;99.90;;;;;;5024264;28;20499;-70
2023/08/12 05:51:14;;;;;;;12.67;7.70;;;19.50;99.90;;;;;;5023051;28;20037;-70
2023/08/12 05:53:40;;;;;;;14.50;8.30;;;19.50;99.90;;;;;;5027157;28;20485;-70
2023/08/12 05:56:05;;;;;;;13.50;7.90;;;19.50;99.90;;;;;;5011356;28;20126;-70
2023/08/12 05:58:31;;;;;;;13.50;8.93;;;19.60;99.90;;;;;;5009406;28;20044;-70
2023/08/12 06:00:57;;;;;;;16.13;8.43;;;19.60;99.90;;;;;;5010435;28;20171;-70
2023/08/12 06:03:23;;;;;;;12.83;8.27;;;19.50;99.90;;;;;;5023824;28;20064;-70
2023/08/12 06:05:49;;;;;;;13.10;8.13;;;19.50;99.90;;;;;;5021072;28;20428;-70
2023/08/12 06:08:15;;;;;;;17.77;8.90;;;19.50;99.90;;;;;;5011535;28;20124;-70
2023/08/12 06:10:41;;;;;;;14.43;8.73;;;19.50;99.90;;;;;;5024645;28;20049;-70
2023/08/12 06:13:07;;;;;;;13.33;8.70;;;19.50;99.90;;;;;;5009779;28;20459;-70
2023/08/12 06:15:33;;;;;;;14.37;8.53;;;19.50;99.90;;;;;;5022429;28;20049;-70
2023/08/12 06:18:00;;;;;;;12.03;8.20;;;19.50;99.90;;;;;;5022221;28;20048;-70
2023/08/12 06:20:26;;;;;;;14.60;8.87;;;19.60;99.90;;;;;;5022086;28;20095;-71
2023/08/12 06:22:52;;;;;;;13.67;9.13;;;19.60;99.90;;;;;;5023080;28;20068;-71
2023/08/12 06:25:19;;;;;;;17.47;9.70;;;19.60;99.90;;;;;;5027640;28;20400;-71
2023/08/12 06:27:45;;;;;;;17.77;9.03;;;19.70;99.90;;;;;;5028133;28;20052;-71
2023/08/12 06:30:12;;;;;;;15.90;9.83;;;19.70;99.90;;;;;;5007400;28;20086;-71
2023/08/12 06:32:38;;;;;;;16.33;8.83;;;19.70;99.90;;;;;;5010547;28;20408;-71
2023/08/12 06:35:04;;;;;;;18.00;10.20;;;19.80;99.90;;;;;;5027367;28;20048;-71
2023/08/12 06:37:30;;;;;;;15.57;9.80;;;19.80;99.90;;;;;;5027396;28;20064;-71
2023/08/12 06:39:55;;;;;;;16.97;10.23;;;19.80;99.90;;;;;;5027203;28;20040;-71
2023/08/12 06:42:22;;;;;;;19.37;10.70;;;19.80;99.90;;;;;;5024999;28;20038;-71
2023/08/12 06:44:57;;;;;;;19.90;11.47;;;19.80;99.90;;;;;;5011765;28;20611;-71
2023/08/12 06:47:23;;;;;;;20.70;12.20;;;19.90;99.90;;;;;;5022198;28;20106;-71
2023/08/12 06:49:49;;;;;;;20.43;11.23;;;19.90;99.90;;;;;;5027620;28;20175;-71
2023/08/12 06:52:16;;;;;;;17.00;10.60;;;20.00;99.90;;;;;;5021106;28;20053;-71
2023/08/12 06:54:41;;;;;;;18.07;11.17;;;20.00;99.90;;;;;;5027952;28;20041;-71
2023/08/12 06:57:07;;;;;;;21.63;11.80;;;20.10;99.90;;;;;;5021730;28;20350;-71
2023/08/12 06:59:33;;;;;;;18.57;11.00;;;20.10;99.90;;;;;;5008817;28;20044;-71
2023/08/12 07:01:59;;;;;;;19.13;11.53;;;20.20;99.90;;;;;;5021880;28;20041;-71
2023/08/12 07:04:25;;;;;;;18.77;12.00;;;20.30;99.90;;;;;;5021064;28;20043;-71
2023/08/12 07:06:51;;;;;;;17.43;11.50;;;20.30;99.90;;;;;;5017221;28;20172;-71
2023/08/12 07:09:16;;;;;;;22.60;11.73;;;20.30;99.90;;;;;;5012797;28;20531;-71
2023/08/12 07:11:42;;;;;;;18.27;11.60;;;20.40;99.90;;;;;;5007249;28;20060;-71
2023/08/12 07:14:08;;;;;;;18.70;11.37;;;20.40;99.80;;;;;;5018499;28;20366;-71
2023/08/12 07:16:33;;;;;;;18.73;11.73;;;20.50;99.60;;;;;;5014344;28;20165;-71
2023/08/12 07:18:59;;;;;;;19.53;11.57;;;20.50;99.50;;;;;;5018611;28;20107;-71
2023/08/12 07:21:25;;;;;;;19.90;11.27;;;20.50;99.20;;;;;;5022169;28;20041;-71
2023/08/12 07:23:51;;;;;;;16.27;10.60;;;20.50;99.00;;;;;;5001437;28;20124;-71
2023/08/12 07:26:16;;;;;;;18.60;11.33;;;20.50;99.00;;;;;;5007009;28;20081;-71
2023/08/12 07:28:42;;;;;;;20.70;11.00;;;20.50;98.90;;;;;;5023743;28;20412;-71
2023/08/12 07:31:08;;;;;;;16.63;10.57;;;20.50;98.80;;;;;;5018969;28;20041;-71
2023/08/12 07:33:34;;;;;;;18.20;11.37;;;20.50;98.80;;;;;;5014831;28;20727;-71
2023/08/12 07:36:00;;;;;;;18.40;11.37;;;20.50;98.70;;;;;;5028584;28;20047;-71
2023/08/12 07:38:26;;;;;;;21.60;11.87;;;20.50;98.70;;;;;;5026977;28;20407;-71
2023/08/12 07:40:52;;;;;;;20.97;11.30;;;20.40;98.60;;;;;;5030011;28;20032;-71
2023/08/12 07:43:18;;;;;;;17.43;11.93;;;20.40;98.60;;;;;;5029698;28;20124;-71
2023/08/12 07:45:43;;;;;;;17.77;12.23;;;20.40;98.70;;;;;;5024039;28;20041;-71
2023/08/12 07:48:09;;;;;;;20.60;11.53;;;20.40;98.70;;;;;;5008019;28;20127;-71
2023/08/12 07:50:35;;;;;;;19.17;12.67;;;20.30;99.00;;;;;;5018298;28;20041;-71
2023/08/12 07:53:00;;;;;;;20.87;12.13;;;20.30;99.30;;;;;;5025683;28;20045;-71
2023/08/12 07:55:27;;;;;;;21.43;13.00;;;20.20;99.70;;;;;;5025478;28;20037;-71
2023/08/12 07:57:53;;;;;;;21.97;12.50;;;20.20;99.90;;;;;;5023379;28;20037;-72
2023/08/12 08:00:19;;;;;;;23.87;13.23;;;20.20;99.90;;;;;;5021479;28;20038;-73
2023/08/12 08:02:45;;;;;;;21.83;13.33;;;20.20;99.90;;;;;;5016634;28;20150;-73
2023/08/12 08:05:11;;;;;;;21.83;13.63;;;20.20;99.90;;;;;;5011676;28;20218;-73
2023/08/12 08:07:36;;;;;;;19.23;13.57;;;20.20;99.90;;;;;;5009817;28;20837;-73
2023/08/12 08:10:03;;;;;;;22.00;12.83;;;20.20;99.90;;;;;;4997046;28;20418;-73
2023/08/12 08:12:29;;;;;;;22.17;13.90;;;20.20;99.90;;;;;;4996379;28;20107;-73
2023/08/12 08:14:54;;;;;;;22.10;13.67;;;20.20;99.90;;;;;;4991398;28;20120;-73
2023/08/12 08:17:20;;;;;;;20.47;12.70;;;20.20;99.90;;;;;;5001585;28;20045;-73
2023/08/12 08:19:46;;;;;;;19.53;13.10;;;20.20;99.90;;;;;;4993884;28;20102;-73
2023/08/12 08:22:12;;;;;;;23.40;13.23;;;20.10;99.90;;;;;;5014225;28;20070;-74
2023/08/12 08:24:38;;;;;;;24.97;13.30;;;20.10;99.90;;;;;;5017040;28;20470;-73
2023/08/12 08:27:04;;;;;;;21.47;14.00;;;20.10;99.90;;;;;;4996067;28;20045;-73
2023/08/12 08:29:30;;;;;;;21.60;14.23;;;20.10;99.90;;;;;;4997172;28;20112;-73
2023/08/12 08:31:56;;;;;;;20.60;13.70;;;20.10;99.90;;;;;;4997262;28;20045;-73
2023/08/12 08:34:22;;;;;;;19.47;14.13;;;20.10;99.90;;;;;;5007118;28;20049;-74
2023/08/12 08:36:48;;;;;;;24.20;15.17;;;20.10;99.90;;;;;;4999257;28;20045;-73
2023/08/12 08:39:13;;;;;;;24.10;14.83;;;20.20;99.90;;;;;;5011117;28;20041;-73
2023/08/12 08:41:40;;;;;;;24.00;15.60;;;20.20;99.90;;;;;;5002570;28;20034;-73
2023/08/12 08:44:10;;;;;;;24.60;16.27;;;20.20;99.90;;;;;;4998556;28;20029;-75
2023/08/12 08:46:36;;;;;;;22.27;16.07;;;20.30;99.90;;;;;;5002089;28;20105;-73
2023/08/12 08:49:04;;;;;;;21.80;15.87;;;20.40;99.90;;;;;;4992588;28;20048;-74
2023/08/12 08:51:32;;;;;;;23.30;16.27;;;20.50;99.90;;;;;;5011583;28;20042;-74
2023/08/12 08:53:58;;;;;;;22.10;16.03;;;20.60;99.90;;;;;;4995311;28;20080;-73
2023/08/12 08:56:24;;;;;;;22.50;15.90;;;20.70;99.90;;;;;;4996028;28;20103;-74
2023/08/12 08:58:50;;;;;;;20.77;16.33;;;20.80;99.90;;;;;;4992423;28;21854;-74
2023/08/12 09:01:20;;;;;;;21.00;16.20;;;20.80;99.90;;;;;;4991405;28;20044;-75
2023/08/12 09:03:47;;;;;;;24.70;15.80;;;20.80;99.90;;;;;;4996838;28;20833;-74
2023/08/12 09:06:12;;;;;;;22.20;16.97;;;20.90;99.90;;;;;;5010100;28;20042;-72
2023/08/12 09:08:44;;;;;;;19.77;16.33;;;20.80;99.90;;;;;;5013214;28;20052;-73
2023/08/12 09:11:13;;;;;;;20.63;15.90;;;20.80;99.90;;;;;;4996094;28;20549;-73
2023/08/12 09:13:39;;;;;;;21.03;16.17;;;20.70;99.90;;;;;;5001642;28;20038;-73
2023/08/12 09:16:04;;;;;;;19.47;16.33;;;20.70;99.90;;;;;;5010907;28;20055;-73
2023/08/12 09:18:31;;;;;;;23.53;16.67;;;20.70;99.90;;;;;;5007470;28;20041;-73
2023/08/12 09:20:57;;;;;;;19.77;15.57;;;20.70;99.90;;;;;;5006987;28;20045;-74
2023/08/12 09:23:25;;;;;;;24.20;16.67;;;20.80;99.90;;;;;;4989064;28;20045;-74
2023/08/12 09:25:51;;;;;;;18.57;15.37;;;20.90;99.90;;;;;;5006228;28;20060;-75
2023/08/12 09:28:17;;;;;;;19.80;16.00;;;20.90;99.90;;;;;;5008790;28;20557;-74
2023/08/12 09:30:49;;;;;;;21.20;16.17;;;21.00;99.90;;;;;;5009759;28;20033;-73
2023/08/12 09:33:15;;;;;;;23.17;16.70;;;21.00;99.90;;;;;;4987690;28;20088;-71
2023/08/12 09:35:42;;;;;;;23.53;17.13;;;21.00;99.90;;;;;;5004355;28;20037;-71
2023/08/12 09:38:13;;;;;;;23.30;17.10;;;21.00;99.90;;;;;;5001246;28;20041;-71
2023/08/12 09:40:39;;;;;;;21.60;16.80;;;20.90;99.90;;;;;;5007318;28;20068;-71
2023/08/12 09:43:05;;;;;;;22.47;17.43;;;20.80;99.90;;;;;;5000984;28;20037;-71
2023/08/12 09:45:32;;;;;;;21.40;16.77;;;20.70;99.90;;;;;;4997457;28;20669;-71
2023/08/12 09:47:58;;;;;;;24.37;16.80;;;20.60;99.90;;;;;;5007495;28;20037;-71
2023/08/12 09:50:28;;;;;;;19.13;15.20;;;20.60;99.90;;;;;;5001357;28;20041;-71
2023/08/12 09:52:55;;;;;;;16.73;13.10;;;20.50;99.90;;;;;;4991917;28;20077;-71
2023/08/12 09:55:23;;;;;;;8.60;6.77;;;20.50;99.90;;;;;;5001665;28;20044;-73
2023/08/12 09:57:54;;;;;;;6.90;3.97;;;20.40;99.90;;;;;;4991156;28;20387;-73
2023/08/12 10:00:25;;;;;;;9.30;3.30;;;20.10;99.50;;;;;;4985703;28;20041;-73
2023/08/12 10:02:52;;;;;;;7.70;2.93;;;19.70;96.90;;;;;;4985130;28;20038;-73
2023/08/12 10:05:28;;;;;;;8.03;3.23;;;19.20;97.20;;;;;;5000966;28;20129;-73
2023/08/12 10:07:54;;;;;;;6.77;2.33;;;18.90;98.10;;;;;;5002702;28;20049;-73
2023/08/12 10:10:22;;;;;;;5.57;1.50;;;18.70;98.60;;;;;;4989161;28;20049;-73
2023/08/12 10:12:48;;;;;;;4.30;1.60;;;18.60;97.90;;;;;;4983319;28;20053;-73
2023/08/12 10:15:14;;;;;;;4.57;1.67;;;18.40;97.00;;;;;;4997931;28;20048;-73
2023/08/12 10:17:44;;;;;;;4.33;1.23;;;18.40;97.80;;;;;;5006276;28;20042;-73
2023/08/12 10:20:14;;;;;;;4.17;1.50;;;18.30;97.10;;;;;;4988834;28;20056;-73
2023/08/12 10:22:42;;;;;;;8.87;2.20;;;18.10;97.00;;;;;;4989809;28;20132;-73
2023/08/12 10:25:08;;;;;;;7.10;1.77;;;18.10;97.80;;;;;;5004936;28;20033;-73
2023/08/12 10:27:35;;;;;;;8.43;1.87;;;18.10;97.60;;;;;;5005521;28;20057;-73
2023/08/12 10:30:05;;;;;;;8.00;1.97;;;18.10;97.60;;;;;;4990486;28;20088;-73
2023/08/12 10:32:32;;;;;;;6.43;2.10;;;18.10;97.70;;;;;;5000282;28;20153;-73
2023/08/12 10:34:58;;;;;;;7.67;2.17;;;18.10;98.20;;;;;;4998637;28;20067;-73
2023/08/12 10:37:25;;;;;;;6.50;2.20;;;18.20;98.60;;;;;;4991976;28;20045;-73
2023/08/12 10:39:55;;;;;;;8.60;2.00;;;18.30;99.10;;;;;;5002956;28;20537;-73
2023/08/12 10:42:45;;;;;;;6.90;2.60;;;18.40;99.20;;;;;;4990409;28;20046;-73
2023/08/12 10:45:12;;;;;;;8.37;2.60;;;18.50;98.80;;;;;;4988019;28;20089;-73
2023/08/12 10:47:48;;;;;;;5.00;2.00;;;18.60;98.80;;;;;;5009678;28;20073;-73
2023/08/12 10:50:21;;;;;;;7.67;2.47;;;18.70;98.40;;;;;;5011006;28;20049;-73
2023/08/12 10:52:50;;;;;;;6.63;2.07;;;18.60;97.90;;;;;;5009425;28;20100;-73
2023/08/12 10:55:27;;;;;;;7.97;2.07;;;18.60;98.10;;;;;;5008874;28;20041;-73
2023/08/12 10:57:55;;;;;;;7.63;2.43;;;18.50;97.70;;;;;;5003524;28;20042;-73
2023/08/12 11:00:28;;;;;;;10.20;2.53;;;18.50;98.00;;;;;;4986929;28;20045;-73
2023/08/12 11:02:58;;;;;;;8.63;2.20;;;18.50;98.30;;;;;;5005213;28;20038;-73
2023/08/12 11:05:25;;;;;;;5.97;2.73;;;18.50;98.40;;;;;;5011020;28;20046;-73
2023/08/12 11:08:03;;;;;;;8.83;3.13;;;18.60;98.60;;;;;;5011191;28;20109;-73
2023/08/12 11:10:33;;;;;;;7.27;2.73;;;18.60;98.90;;;;;;5001442;28;20053;-73
2023/08/12 11:13:00;;;;;;;8.43;2.60;;;18.60;98.80;;;;;;5027284;28;20050;-73
2023/08/12 11:15:44;;;;;;;8.30;3.00;;;18.60;98.70;;;;;;5025039;28;20051;-73
2023/08/12 11:18:14;;;;;;;10.52;3.38;;;18.70;98.80;;;;;;5037809;28;20049;-73
2023/08/12 11:20:40;;;;;;;7.00;2.90;;;18.70;99.30;;;;;;5033733;28;20038;-73
2023/08/12 11:23:07;;;;;;;8.87;3.10;;;18.80;99.20;;;;;;5026862;28;20038;-73
2023/08/12 11:25:34;;;;;;;10.47;2.93;;;18.80;98.80;;;;;;5036995;28;20041;-73
2023/08/12 11:28:00;;;;;;;6.57;2.67;;;18.90;98.90;;;;;;5023003;28;20041;-73
2023/08/12 11:30:27;;;;;;;8.87;3.40;;;18.90;98.90;;;;;;5021676;28;20037;-72
2023/08/12 11:32:54;;;;;;;5.50;2.70;;;19.00;99.10;;;;;;5013494;28;20059;-73
2023/08/12 11:35:22;;;;;;;8.87;3.03;;;19.00;98.80;;;;;;5034831;28;20044;-73
2023/08/12 11:37:49;;;;;;;10.03;3.80;;;19.10;98.80;;;;;;5001753;28;20045;-73
2023/08/12 11:40:17;;;;;;;9.67;4.07;;;19.10;97.80;;;;;;5028464;28;20073;-72
2023/08/12 11:42:48;;;;;;;8.30;3.43;;;19.30;98.50;;;;;;5026494;28;20829;-73
2023/08/12 11:45:17;;;;;;;9.43;2.97;;;19.40;98.50;;;;;;5022862;28;20100;-73
2023/08/12 11:47:43;;;;;;;8.17;2.20;;;19.50;97.90;;;;;;5014060;28;20466;-72
2023/08/12 11:50:10;;;;;;;7.43;2.90;;;19.70;94.90;;;;;;5023716;28;20069;-74
2023/08/12 11:52:37;;;;;;;7.03;1.90;;;19.90;93.90;;;;;;5029972;28;20070;-72
2023/08/12 11:55:05;;;;;;;5.43;2.10;;;20.00;92.50;;;;;;5014740;28;20044;-73
2023/08/12 11:57:34;;;;;;;9.60;2.80;;;20.20;89.80;;;;;;5013073;28;20339;-72
2023/08/12 12:00:03;;;;;;;6.73;2.40;;;20.40;89.60;;;;;;5010639;28;20029;-72
2023/08/12 12:02:28;;;;;;;5.77;2.03;;;20.50;87.90;;;;;;5024715;28;20037;-72
2023/08/12 12:04:54;;;;;;;6.30;2.40;;;20.60;87.80;;;;;;5003185;28;20468;-72
2023/08/12 12:07:22;;;;;;;8.23;1.90;;;20.70;88.20;;;;;;5013431;28;20068;-73
2023/08/12 12:09:52;;;;;;;10.20;2.47;;;20.90;88.30;;;;;;5012961;28;20112;-72
2023/08/12 12:12:18;;;;;;;7.30;2.43;;;21.00;84.90;;;;;;5028608;28;20076;-72
2023/08/12 12:14:46;;;;;;;9.43;3.13;;;21.20;86.60;;;;;;5030384;28;20128;-72
2023/08/12 12:17:14;;;;;;;9.77;3.90;;;21.40;84.70;;;;;;5025810;28;20050;-73
2023/08/12 12:19:41;;;;;;;5.93;2.30;;;21.50;85.20;;;;;;5026653;28;20053;-72
2023/08/12 12:22:07;;;;;;;9.50;2.60;;;21.70;83.90;;;;;;5026929;28;20112;-72
2023/08/12 12:24:47;;;;;;;7.70;2.57;;;21.90;84.80;;;;;;5031645;28;20048;-70
2023/08/12 12:27:13;;;;;;;9.23;2.83;;;22.00;84.50;;;;;;5027124;28;20056;-70
2023/08/12 12:29:39;;;;;;;8.67;3.40;;;22.10;83.80;;;;;;5028049;28;20045;-70
2023/08/12 12:32:05;;;;;;;9.30;2.70;;;22.10;83.90;;;;;;5029400;28;20048;-70
2023/08/12 12:34:31;;;;;;;10.20;2.87;;;22.10;81.70;;;;;;5030496;28;20047;-71
2023/08/12 12:36:56;;;;;;;8.30;2.63;;;22.10;81.60;;;;;;5028217;28;20049;-71